NV27 weather

Circle L Ranch Airport
Dyer, Nevada, United States

Public forecast

Using degrees Fahrenheit for public forecast. Weather courtesy of forecast.io.

METAR (pilot weather report)

Closest report is Eastern Sierra Regional Airport, 24.6 nm (45.5 km) SSW. Retrieved 2019/07/19 15:56 UTC (16 minutes ago):

KBIH 191556Z AUTO 00000KT 10SM CLR 26/05 A2997 RMK AO2 SLP092 T02560050

TAF (pilot weather forecast)

Closest forecast is Eastern Sierra Regional Airport, 24.6 nm (45.5 km) SSW. Retrieved 2019/07/19 12:22 UTC (4 hours ago):

TAF KBIH 191120Z 1912/2012 31006KT P6SM SKC FM191900 16015G24KT P6SM FEW150 FM200400 33005KT P6SM FEW150